sensor_id;sensor_type;location;lat;lon;timestamp;temperature;humidity
29403;DHT22;16382;59.942;30.472;2023-12-04T00:00:03;-3.00;67.50
29403;DHT22;16382;59.942;30.472;2023-12-04T00:02:40;-3.10;67.90
29403;DHT22;16382;59.942;30.472;2023-12-04T00:05:08;-3.00;67.90
29403;DHT22;16382;59.942;30.472;2023-12-04T00:07:35;-3.00;67.90
29403;DHT22;16382;59.942;30.472;2023-12-04T00:10:04;-3.00;67.50
29403;DHT22;16382;59.942;30.472;2023-12-04T00:12:32;-2.90;67.70
29403;DHT22;16382;59.942;30.472;2023-12-04T00:14:59;-2.90;67.80
29403;DHT22;16382;59.942;30.472;2023-12-04T00:17:29;-2.90;68.10
29403;DHT22;16382;59.942;30.472;2023-12-04T00:20:00;-2.90;67.60
29403;DHT22;16382;59.942;30.472;2023-12-04T00:22:28;-2.90;67.30
29403;DHT22;16382;59.942;30.472;2023-12-04T00:24:56;-2.90;67.20
29403;DHT22;16382;59.942;30.472;2023-12-04T00:27:23;-2.90;67.40
29403;DHT22;16382;59.942;30.472;2023-12-04T00:29:53;-2.90;67.60
29403;DHT22;16382;59.942;30.472;2023-12-04T00:32:20;-2.80;67.70
29403;DHT22;16382;59.942;30.472;2023-12-04T00:34:48;-2.90;67.40
29403;DHT22;16382;59.942;30.472;2023-12-04T00:37:17;-2.80;68.00
29403;DHT22;16382;59.942;30.472;2023-12-04T00:39:45;-2.80;67.60
29403;DHT22;16382;59.942;30.472;2023-12-04T00:42:13;-2.70;67.40
29403;DHT22;16382;59.942;30.472;2023-12-04T00:44:41;-2.70;67.60
29403;DHT22;16382;59.942;30.472;2023-12-04T00:47:11;-2.70;67.10
29403;DHT22;16382;59.942;30.472;2023-12-04T00:49:39;-2.70;67.10
29403;DHT22;16382;59.942;30.472;2023-12-04T00:52:07;-2.70;67.20
29403;DHT22;16382;59.942;30.472;2023-12-04T00:54:39;-2.70;67.70
29403;DHT22;16382;59.942;30.472;2023-12-04T00:57:07;-2.70;67.50
29403;DHT22;16382;59.942;30.472;2023-12-04T00:59:37;-2.60;67.20
29403;DHT22;16382;59.942;30.472;2023-12-04T01:02:07;-2.60;66.80
29403;DHT22;16382;59.942;30.472;2023-12-04T01:04:35;-2.60;66.60
29403;DHT22;16382;59.942;30.472;2023-12-04T01:07:03;-2.60;66.70
29403;DHT22;16382;59.942;30.472;2023-12-04T01:09:30;-2.70;67.60
29403;DHT22;16382;59.942;30.472;2023-12-04T01:12:00;-2.70;67.40
29403;DHT22;16382;59.942;30.472;2023-12-04T01:14:27;-2.70;67.40
29403;DHT22;16382;59.942;30.472;2023-12-04T01:16:55;-2.70;67.50
29403;DHT22;16382;59.942;30.472;2023-12-04T01:19:23;-2.70;67.40
29403;DHT22;16382;59.942;30.472;2023-12-04T01:21:50;-2.70;67.20
29403;DHT22;16382;59.942;30.472;2023-12-04T01:24:18;-2.70;67.30
29403;DHT22;16382;59.942;30.472;2023-12-04T01:26:46;-2.70;67.40
29403;DHT22;16382;59.942;30.472;2023-12-04T01:29:15;-2.70;67.50
29403;DHT22;16382;59.942;30.472;2023-12-04T01:31:43;-2.70;67.60
29403;DHT22;16382;59.942;30.472;2023-12-04T01:34:10;-2.70;67.50
29403;DHT22;16382;59.942;30.472;2023-12-04T01:36:40;-2.80;67.50
29403;DHT22;16382;59.942;30.472;2023-12-04T01:39:08;-2.80;68.00
29403;DHT22;16382;59.942;30.472;2023-12-04T01:41:35;-2.70;67.90
29403;DHT22;16382;59.942;30.472;2023-12-04T01:44:03;-2.70;67.60
29403;DHT22;16382;59.942;30.472;2023-12-04T01:46:32;-2.80;67.10
29403;DHT22;16382;59.942;30.472;2023-12-04T01:49:00;-2.80;67.20
29403;DHT22;16382;59.942;30.472;2023-12-04T01:51:29;-2.90;67.20
29403;DHT22;16382;59.942;30.472;2023-12-04T01:53:59;-2.90;67.60
29403;DHT22;16382;59.942;30.472;2023-12-04T01:56:27;-2.90;67.70
29403;DHT22;16382;59.942;30.472;2023-12-04T01:58:54;-3.00;67.70
29403;DHT22;16382;59.942;30.472;2023-12-04T02:01:22;-2.90;67.90
29403;DHT22;16382;59.942;30.472;2023-12-04T02:03:54;-3.00;67.90
29403;DHT22;16382;59.942;30.472;2023-12-04T02:06:22;-3.00;68.20
29403;DHT22;16382;59.942;30.472;2023-12-04T02:08:51;-3.10;68.10
29403;DHT22;16382;59.942;30.472;2023-12-04T02:11:19;-3.10;67.90
29403;DHT22;16382;59.942;30.472;2023-12-04T02:13:46;-3.10;68.30
29403;DHT22;16382;59.942;30.472;2023-12-04T02:16:15;-3.10;67.90
29403;DHT22;16382;59.942;30.472;2023-12-04T02:18:45;-3.10;68.20
29403;DHT22;16382;59.942;30.472;2023-12-04T02:21:15;-3.10;68.20
29403;DHT22;16382;59.942;30.472;2023-12-04T02:23:42;-3.10;68.50
29403;DHT22;16382;59.942;30.472;2023-12-04T02:26:15;-3.10;68.90
29403;DHT22;16382;59.942;30.472;2023-12-04T02:28:49;-3.10;68.70
29403;DHT22;16382;59.942;30.472;2023-12-04T02:31:27;-3.10;68.80
29403;DHT22;16382;59.942;30.472;2023-12-04T02:33:57;-3.10;68.40
29403;DHT22;16382;59.942;30.472;2023-12-04T02:36:27;-3.10;68.50
29403;DHT22;16382;59.942;30.472;2023-12-04T02:38:55;-3.10;68.50
29403;DHT22;16382;59.942;30.472;2023-12-04T02:41:24;-3.10;68.50
29403;DHT22;16382;59.942;30.472;2023-12-04T02:43:52;-3.10;68.50
29403;DHT22;16382;59.942;30.472;2023-12-04T02:46:19;-3.00;68.60
29403;DHT22;16382;59.942;30.472;2023-12-04T02:48:47;-3.10;68.40
29403;DHT22;16382;59.942;30.472;2023-12-04T02:51:14;-3.00;68.30
29403;DHT22;16382;59.942;30.472;2023-12-04T02:53:42;-3.00;68.40
29403;DHT22;16382;59.942;30.472;2023-12-04T02:56:10;-3.00;68.50
29403;DHT22;16382;59.942;30.472;2023-12-04T02:58:40;-3.00;68.10
29403;DHT22;16382;59.942;30.472;2023-12-04T03:01:07;-3.00;67.80
29403;DHT22;16382;59.942;30.472;2023-12-04T03:03:35;-3.00;67.90
29403;DHT22;16382;59.942;30.472;2023-12-04T03:06:03;-3.00;67.80
29403;DHT22;16382;59.942;30.472;2023-12-04T03:08:31;-3.00;68.00
29403;DHT22;16382;59.942;30.472;2023-12-04T03:11:00;-3.00;67.90
29403;DHT22;16382;59.942;30.472;2023-12-04T03:13:29;-2.90;68.10
29403;DHT22;16382;59.942;30.472;2023-12-04T03:15:58;-2.90;67.90
29403;DHT22;16382;59.942;30.472;2023-12-04T03:18:25;-2.90;68.70
29403;DHT22;16382;59.942;30.472;2023-12-04T03:20:55;-2.80;67.90
29403;DHT22;16382;59.942;30.472;2023-12-04T03:23:22;-2.80;67.70
29403;DHT22;16382;59.942;30.472;2023-12-04T03:25:50;-2.90;67.60
29403;DHT22;16382;59.942;30.472;2023-12-04T03:28:18;-2.90;67.60
29403;DHT22;16382;59.942;30.472;2023-12-04T03:30:45;-2.80;67.70
29403;DHT22;16382;59.942;30.472;2023-12-04T03:33:14;-2.80;68.30
29403;DHT22;16382;59.942;30.472;2023-12-04T03:35:42;-2.80;67.60
29403;DHT22;16382;59.942;30.472;2023-12-04T03:38:10;-2.90;67.70
29403;DHT22;16382;59.942;30.472;2023-12-04T03:40:40;-2.90;67.60
29403;DHT22;16382;59.942;30.472;2023-12-04T03:43:08;-2.90;67.70
29403;DHT22;16382;59.942;30.472;2023-12-04T03:45:35;-2.90;67.80
29403;DHT22;16382;59.942;30.472;2023-12-04T03:48:03;-3.00;68.00
29403;DHT22;16382;59.942;30.472;2023-12-04T03:50:33;-3.00;68.40
29403;DHT22;16382;59.942;30.472;2023-12-04T03:53:01;-3.00;68.30
29403;DHT22;16382;59.942;30.472;2023-12-04T03:55:29;-3.00;68.00
29403;DHT22;16382;59.942;30.472;2023-12-04T03:57:57;-3.00;68.00
29403;DHT22;16382;59.942;30.472;2023-12-04T04:00:25;-3.00;67.90
29403;DHT22;16382;59.942;30.472;2023-12-04T04:02:58;-2.90;68.20
29403;DHT22;16382;59.942;30.472;2023-12-04T04:05:25;-3.00;67.50
29403;DHT22;16382;59.942;30.472;2023-12-04T04:07:55;-2.90;67.70
29403;DHT22;16382;59.942;30.472;2023-12-04T04:10:23;-3.00;67.50
29403;DHT22;16382;59.942;30.472;2023-12-04T04:12:50;-3.10;67.80
29403;DHT22;16382;59.942;30.472;2023-12-04T04:15:18;-3.00;68.80
29403;DHT22;16382;59.942;30.472;2023-12-04T04:17:49;-3.00;67.90
29403;DHT22;16382;59.942;30.472;2023-12-04T04:20:17;-3.00;67.60
29403;DHT22;16382;59.942;30.472;2023-12-04T04:22:47;-3.10;67.50
29403;DHT22;16382;59.942;30.472;2023-12-04T04:25:24;-3.10;68.20
29403;DHT22;16382;59.942;30.472;2023-12-04T04:27:52;-3.10;68.10
29403;DHT22;16382;59.942;30.472;2023-12-04T04:30:20;-3.10;68.30
29403;DHT22;16382;59.942;30.472;2023-12-04T04:32:47;-3.10;68.20
29403;DHT22;16382;59.942;30.472;2023-12-04T04:35:15;-3.10;68.10
29403;DHT22;16382;59.942;30.472;2023-12-04T04:37:43;-3.00;68.10
29403;DHT22;16382;59.942;30.472;2023-12-04T04:40:11;-3.10;68.20
29403;DHT22;16382;59.942;30.472;2023-12-04T04:42:40;-3.10;68.10
29403;DHT22;16382;59.942;30.472;2023-12-04T04:45:09;-3.10;68.10
29403;DHT22;16382;59.942;30.472;2023-12-04T04:47:37;-3.10;68.00
29403;DHT22;16382;59.942;30.472;2023-12-04T04:50:05;-3.10;68.10
29403;DHT22;16382;59.942;30.472;2023-12-04T04:52:34;-3.00;67.90
29403;DHT22;16382;59.942;30.472;2023-12-04T04:55:02;-3.00;67.90
29403;DHT22;16382;59.942;30.472;2023-12-04T04:57:35;-3.00;68.00
29403;DHT22;16382;59.942;30.472;2023-12-04T05:00:09;-3.00;68.00
29403;DHT22;16382;59.942;30.472;2023-12-04T05:02:38;-3.00;68.20
29403;DHT22;16382;59.942;30.472;2023-12-04T05:05:06;-3.00;68.10
29403;DHT22;16382;59.942;30.472;2023-12-04T05:07:35;-3.00;68.00
29403;DHT22;16382;59.942;30.472;2023-12-04T05:10:02;-3.00;68.20
29403;DHT22;16382;59.942;30.472;2023-12-04T05:12:31;-3.10;68.50
29403;DHT22;16382;59.942;30.472;2023-12-04T05:15:01;-3.10;68.50
29403;DHT22;16382;59.942;30.472;2023-12-04T05:17:32;-3.00;68.40
29403;DHT22;16382;59.942;30.472;2023-12-04T05:19:59;-3.10;68.40
29403;DHT22;16382;59.942;30.472;2023-12-04T05:22:29;-3.10;68.70
29403;DHT22;16382;59.942;30.472;2023-12-04T05:24:56;-3.00;68.70
29403;DHT22;16382;59.942;30.472;2023-12-04T05:27:24;-3.10;68.40
29403;DHT22;16382;59.942;30.472;2023-12-04T05:29:52;-3.10;68.70
29403;DHT22;16382;59.942;30.472;2023-12-04T05:32:19;-3.10;68.80
29403;DHT22;16382;59.942;30.472;2023-12-04T05:34:48;-3.10;68.90
29403;DHT22;16382;59.942;30.472;2023-12-04T05:37:16;-3.10;68.90
29403;DHT22;16382;59.942;30.472;2023-12-04T05:39:44;-3.20;68.90
29403;DHT22;16382;59.942;30.472;2023-12-04T05:42:11;-3.20;68.90
29403;DHT22;16382;59.942;30.472;2023-12-04T05:44:39;-3.20;69.10
29403;DHT22;16382;59.942;30.472;2023-12-04T05:47:06;-3.20;69.00
29403;DHT22;16382;59.942;30.472;2023-12-04T05:49:37;-3.20;69.10
29403;DHT22;16382;59.942;30.472;2023-12-04T05:52:06;-3.20;69.00
29403;DHT22;16382;59.942;30.472;2023-12-04T05:54:34;-3.20;69.30
29403;DHT22;16382;59.942;30.472;2023-12-04T05:57:02;-3.20;69.40
29403;DHT22;16382;59.942;30.472;2023-12-04T05:59:30;-3.20;69.20
29403;DHT22;16382;59.942;30.472;2023-12-04T06:01:58;-3.10;70.00
29403;DHT22;16382;59.942;30.472;2023-12-04T06:04:27;-3.20;69.10
29403;DHT22;16382;59.942;30.472;2023-12-04T06:06:57;-3.10;69.20
29403;DHT22;16382;59.942;30.472;2023-12-04T06:09:29;-3.10;69.00
29403;DHT22;16382;59.942;30.472;2023-12-04T06:12:12;-3.10;69.00
29403;DHT22;16382;59.942;30.472;2023-12-04T06:15:16;-3.10;69.00
29403;DHT22;16382;59.942;30.472;2023-12-04T06:17:45;-3.20;69.00
29403;DHT22;16382;59.942;30.472;2023-12-04T06:20:12;-3.20;69.20
29403;DHT22;16382;59.942;30.472;2023-12-04T06:22:43;-3.10;69.40
29403;DHT22;16382;59.942;30.472;2023-12-04T06:25:17;-3.20;69.60
29403;DHT22;16382;59.942;30.472;2023-12-04T06:27:46;-3.10;69.50
29403;DHT22;16382;59.942;30.472;2023-12-04T06:30:15;-3.10;69.40
29403;DHT22;16382;59.942;30.472;2023-12-04T06:32:44;-3.10;69.30
29403;DHT22;16382;59.942;30.472;2023-12-04T06:35:22;-3.20;69.20
29403;DHT22;16382;59.942;30.472;2023-12-04T06:37:54;-3.10;69.40
29403;DHT22;16382;59.942;30.472;2023-12-04T06:40:23;-3.10;69.70
29403;DHT22;16382;59.942;30.472;2023-12-04T06:42:52;-3.10;69.40
29403;DHT22;16382;59.942;30.472;2023-12-04T06:45:22;-3.10;69.30
29403;DHT22;16382;59.942;30.472;2023-12-04T06:47:54;-3.10;69.50
29403;DHT22;16382;59.942;30.472;2023-12-04T06:50:23;-3.10;69.60
29403;DHT22;16382;59.942;30.472;2023-12-04T06:52:56;-3.10;69.40
29403;DHT22;16382;59.942;30.472;2023-12-04T06:55:25;-3.10;69.60
29403;DHT22;16382;59.942;30.472;2023-12-04T06:57:53;-3.10;69.40
29403;DHT22;16382;59.942;30.472;2023-12-04T07:00:21;-3.10;69.50
29403;DHT22;16382;59.942;30.472;2023-12-04T07:02:51;-3.10;69.30
29403;DHT22;16382;59.942;30.472;2023-12-04T07:05:19;-3.10;69.20
29403;DHT22;16382;59.942;30.472;2023-12-04T07:07:48;-3.10;69.40
29403;DHT22;16382;59.942;30.472;2023-12-04T07:10:18;-3.10;69.60
29403;DHT22;16382;59.942;30.472;2023-12-04T07:12:47;-3.10;69.50
29403;DHT22;16382;59.942;30.472;2023-12-04T07:15:15;-3.10;69.10
29403;DHT22;16382;59.942;30.472;2023-12-04T07:17:43;-3.00;69.30
29403;DHT22;16382;59.942;30.472;2023-12-04T07:20:11;-3.10;68.80
29403;DHT22;16382;59.942;30.472;2023-12-04T07:22:41;-3.10;68.40
29403;DHT22;16382;59.942;30.472;2023-12-04T07:25:10;-3.10;68.90
29403;DHT22;16382;59.942;30.472;2023-12-04T07:27:38;-3.00;68.90
29403;DHT22;16382;59.942;30.472;2023-12-04T07:30:08;-3.00;68.80
29403;DHT22;16382;59.942;30.472;2023-12-04T07:32:39;-3.00;68.50
29403;DHT22;16382;59.942;30.472;2023-12-04T07:35:09;-2.90;68.50
29403;DHT22;16382;59.942;30.472;2023-12-04T07:37:37;-2.90;68.10
29403;DHT22;16382;59.942;30.472;2023-12-04T07:40:12;-2.90;68.40
29403;DHT22;16382;59.942;30.472;2023-12-04T07:42:43;-2.90;68.00
29403;DHT22;16382;59.942;30.472;2023-12-04T07:45:41;-2.90;68.20
29403;DHT22;16382;59.942;30.472;2023-12-04T07:48:42;-2.90;68.20
29403;DHT22;16382;59.942;30.472;2023-12-04T07:51:12;-2.80;68.00
29403;DHT22;16382;59.942;30.472;2023-12-04T07:53:58;-2.80;67.80
29403;DHT22;16382;59.942;30.472;2023-12-04T07:56:40;-2.80;67.60
29403;DHT22;16382;59.942;30.472;2023-12-04T07:59:10;-2.80;67.60
29403;DHT22;16382;59.942;30.472;2023-12-04T08:01:52;-2.80;67.40
29403;DHT22;16382;59.942;30.472;2023-12-04T08:04:26;-2.80;67.70
29403;DHT22;16382;59.942;30.472;2023-12-04T08:06:59;-2.70;67.50
29403;DHT22;16382;59.942;30.472;2023-12-04T08:09:37;-2.60;67.20
29403;DHT22;16382;59.942;30.472;2023-12-04T08:12:06;-2.60;66.90
29403;DHT22;16382;59.942;30.472;2023-12-04T08:14:36;-2.60;66.90
29403;DHT22;16382;59.942;30.472;2023-12-04T08:17:06;-2.60;66.50
29403;DHT22;16382;59.942;30.472;2023-12-04T08:19:36;-2.60;66.60
29403;DHT22;16382;59.942;30.472;2023-12-04T08:22:07;-2.50;66.40
29403;DHT22;16382;59.942;30.472;2023-12-04T08:24:35;-2.50;66.00
29403;DHT22;16382;59.942;30.472;2023-12-04T08:27:05;-2.60;65.60
29403;DHT22;16382;59.942;30.472;2023-12-04T08:29:34;-2.70;66.00
29403;DHT22;16382;59.942;30.472;2023-12-04T08:32:02;-2.60;66.30
29403;DHT22;16382;59.942;30.472;2023-12-04T08:34:32;-2.60;65.90
29403;DHT22;16382;59.942;30.472;2023-12-04T08:37:08;-2.50;65.70
29403;DHT22;16382;59.942;30.472;2023-12-04T08:39:36;-2.40;65.50
29403;DHT22;16382;59.942;30.472;2023-12-04T08:42:06;-2.40;65.50
29403;DHT22;16382;59.942;30.472;2023-12-04T08:44:34;-2.30;65.50
29403;DHT22;16382;59.942;30.472;2023-12-04T08:47:02;-2.20;64.90
29403;DHT22;16382;59.942;30.472;2023-12-04T08:49:32;-2.20;64.70
29403;DHT22;16382;59.942;30.472;2023-12-04T08:52:03;-2.30;64.70
29403;DHT22;16382;59.942;30.472;2023-12-04T08:54:31;-2.30;64.40
29403;DHT22;16382;59.942;30.472;2023-12-04T08:57:00;-2.30;64.40
29403;DHT22;16382;59.942;30.472;2023-12-04T08:59:29;-2.20;64.50
29403;DHT22;16382;59.942;30.472;2023-12-04T09:01:57;-2.20;64.20
29403;DHT22;16382;59.942;30.472;2023-12-04T09:04:25;-2.10;63.90
29403;DHT22;16382;59.942;30.472;2023-12-04T09:06:54;-2.10;63.60
29403;DHT22;16382;59.942;30.472;2023-12-04T09:09:21;-2.00;63.60
29403;DHT22;16382;59.942;30.472;2023-12-04T09:11:49;-1.90;63.30
29403;DHT22;16382;59.942;30.472;2023-12-04T09:14:17;-1.80;63.10
29403;DHT22;16382;59.942;30.472;2023-12-04T09:16:45;-1.80;62.50
29403;DHT22;16382;59.942;30.472;2023-12-04T09:19:13;-1.90;62.60
29403;DHT22;16382;59.942;30.472;2023-12-04T09:21:43;-1.90;62.80
29403;DHT22;16382;59.942;30.472;2023-12-04T09:24:12;-1.80;62.50
29403;DHT22;16382;59.942;30.472;2023-12-04T09:26:40;-1.80;62.40
29403;DHT22;16382;59.942;30.472;2023-12-04T09:29:11;-1.80;62.20
29403;DHT22;16382;59.942;30.472;2023-12-04T09:31:40;-1.80;62.20
29403;DHT22;16382;59.942;30.472;2023-12-04T09:34:07;-1.60;62.10
29403;DHT22;16382;59.942;30.472;2023-12-04T09:36:36;-1.50;61.90
29403;DHT22;16382;59.942;30.472;2023-12-04T09:39:06;-1.50;61.20
29403;DHT22;16382;59.942;30.472;2023-12-04T09:41:39;-1.60;61.60
29403;DHT22;16382;59.942;30.472;2023-12-04T09:44:08;-1.60;61.90
29403;DHT22;16382;59.942;30.472;2023-12-04T09:46:36;-1.60;61.90
29403;DHT22;16382;59.942;30.472;2023-12-04T09:49:04;-1.50;61.70
29403;DHT22;16382;59.942;30.472;2023-12-04T09:51:33;-1.40;61.00
29403;DHT22;16382;59.942;30.472;2023-12-04T09:54:02;-1.40;60.70
29403;DHT22;16382;59.942;30.472;2023-12-04T09:56:33;-1.40;61.10
29403;DHT22;16382;59.942;30.472;2023-12-04T09:59:05;-1.60;61.00
29403;DHT22;16382;59.942;30.472;2023-12-04T10:01:33;-1.60;61.10
29403;DHT22;16382;59.942;30.472;2023-12-04T10:04:04;-1.70;61.40
29403;DHT22;16382;59.942;30.472;2023-12-04T10:06:33;-1.80;61.90
29403;DHT22;16382;59.942;30.472;2023-12-04T10:09:01;-1.80;61.90
29403;DHT22;16382;59.942;30.472;2023-12-04T10:11:29;-1.80;61.90
29403;DHT22;16382;59.942;30.472;2023-12-04T10:14:00;-1.80;61.90
29403;DHT22;16382;59.942;30.472;2023-12-04T10:16:36;-1.80;61.70
29403;DHT22;16382;59.942;30.472;2023-12-04T10:19:15;-1.90;62.00
29403;DHT22;16382;59.942;30.472;2023-12-04T10:21:45;-1.90;61.70
29403;DHT22;16382;59.942;30.472;2023-12-04T10:24:27;-1.80;62.00
29403;DHT22;16382;59.942;30.472;2023-12-04T10:26:57;-1.70;61.50
29403;DHT22;16382;59.942;30.472;2023-12-04T10:29:29;-1.70;61.00
29403;DHT22;16382;59.942;30.472;2023-12-04T10:32:08;-1.70;60.90
29403;DHT22;16382;59.942;30.472;2023-12-04T10:34:36;-1.90;61.50
29403;DHT22;16382;59.942;30.472;2023-12-04T10:37:07;-1.90;61.50
29403;DHT22;16382;59.942;30.472;2023-12-04T10:39:45;-1.90;61.70
29403;DHT22;16382;59.942;30.472;2023-12-04T10:42:24;-1.90;62.10
29403;DHT22;16382;59.942;30.472;2023-12-04T10:44:55;-1.70;61.60
29403;DHT22;16382;59.942;30.472;2023-12-04T10:47:23;-1.60;61.20
29403;DHT22;16382;59.942;30.472;2023-12-04T10:49:51;-1.60;60.80
29403;DHT22;16382;59.942;30.472;2023-12-04T10:52:19;-1.80;61.10
29403;DHT22;16382;59.942;30.472;2023-12-04T10:54:47;-2.00;61.70
29403;DHT22;16382;59.942;30.472;2023-12-04T10:57:21;-2.00;62.40
29403;DHT22;16382;59.942;30.472;2023-12-04T10:59:55;-1.90;62.50
29403;DHT22;16382;59.942;30.472;2023-12-04T11:02:26;-2.00;62.60
29403;DHT22;16382;59.942;30.472;2023-12-04T11:04:58;-2.00;62.40
29403;DHT22;16382;59.942;30.472;2023-12-04T11:07:33;-1.90;62.50
29403;DHT22;16382;59.942;30.472;2023-12-04T11:10:03;-1.90;62.50
29403;DHT22;16382;59.942;30.472;2023-12-04T11:12:35;-1.90;62.70
29403;DHT22;16382;59.942;30.472;2023-12-04T11:15:05;-2.00;63.90
29403;DHT22;16382;59.942;30.472;2023-12-04T11:17:37;-1.90;62.80
29403;DHT22;16382;59.942;30.472;2023-12-04T11:20:10;-1.80;62.80
29403;DHT22;16382;59.942;30.472;2023-12-04T11:22:39;-1.70;62.40
29403;DHT22;16382;59.942;30.472;2023-12-04T11:25:08;-1.60;62.40
29403;DHT22;16382;59.942;30.472;2023-12-04T11:27:37;-1.60;62.00
29403;DHT22;16382;59.942;30.472;2023-12-04T11:30:08;-1.60;62.20
29403;DHT22;16382;59.942;30.472;2023-12-04T11:32:44;-1.60;62.30
29403;DHT22;16382;59.942;30.472;2023-12-04T11:35:14;-1.70;62.50
29403;DHT22;16382;59.942;30.472;2023-12-04T11:37:45;-1.70;62.60
29403;DHT22;16382;59.942;30.472;2023-12-04T11:40:15;-1.90;63.00
29403;DHT22;16382;59.942;30.472;2023-12-04T11:42:44;-2.00;63.40
29403;DHT22;16382;59.942;30.472;2023-12-04T11:45:20;-2.20;64.20
29403;DHT22;16382;59.942;30.472;2023-12-04T11:47:55;-2.40;65.00
29403;DHT22;16382;59.942;30.472;2023-12-04T11:50:38;-2.50;65.60
29403;DHT22;16382;59.942;30.472;2023-12-04T11:54:28;-2.40;66.20
29403;DHT22;16382;59.942;30.472;2023-12-04T11:58:12;-2.60;66.50
29403;DHT22;16382;59.942;30.472;2023-12-04T12:01:38;-2.60;66.90
29403;DHT22;16382;59.942;30.472;2023-12-04T12:09:18;-2.60;67.20
29403;DHT22;16382;59.942;30.472;2023-12-04T12:16:47;-2.40;67.40
29403;DHT22;16382;59.942;30.472;2023-12-04T12:20:52;-2.20;66.90
29403;DHT22;16382;59.942;30.472;2023-12-04T12:23:51;-2.20;66.70
29403;DHT22;16382;59.942;30.472;2023-12-04T12:26:43;-2.30;66.10
29403;DHT22;16382;59.942;30.472;2023-12-04T12:29:54;-2.40;66.10
29403;DHT22;16382;59.942;30.472;2023-12-04T12:34:22;-2.50;67.00
29403;DHT22;16382;59.942;30.472;2023-12-04T12:37:24;-2.60;66.70
29403;DHT22;16382;59.942;30.472;2023-12-04T12:41:18;-2.60;67.10
29403;DHT22;16382;59.942;30.472;2023-12-04T12:44:19;-2.60;67.20
29403;DHT22;16382;59.942;30.472;2023-12-04T12:46:53;-2.50;67.00
29403;DHT22;16382;59.942;30.472;2023-12-04T12:49:42;-2.60;67.20
29403;DHT22;16382;59.942;30.472;2023-12-04T12:52:19;-2.60;67.10
29403;DHT22;16382;59.942;30.472;2023-12-04T12:55:26;-2.60;67.10
29403;DHT22;16382;59.942;30.472;2023-12-04T12:58:56;-2.60;67.30
29403;DHT22;16382;59.942;30.472;2023-12-04T13:02:33;-2.70;67.50
29403;DHT22;16382;59.942;30.472;2023-12-04T13:18:56;-3.00;68.20
29403;DHT22;16382;59.942;30.472;2023-12-04T13:28:49;-3.20;68.90
29403;DHT22;16382;59.942;30.472;2023-12-04T13:30:13;-3.30;69.40
29403;DHT22;16382;59.942;30.472;2023-12-04T13:33:01;-3.40;69.80
29403;DHT22;16382;59.942;30.472;2023-12-04T13:36:17;-3.40;69.80
29403;DHT22;16382;59.942;30.472;2023-12-04T13:38:50;-3.40;69.90
29403;DHT22;16382;59.942;30.472;2023-12-04T13:41:29;-3.40;70.10
29403;DHT22;16382;59.942;30.472;2023-12-04T13:44:14;-3.30;70.20
29403;DHT22;16382;59.942;30.472;2023-12-04T13:46:48;-3.40;69.80
29403;DHT22;16382;59.942;30.472;2023-12-04T13:49:39;-3.40;70.10
29403;DHT22;16382;59.942;30.472;2023-12-04T13:52:20;-3.40;70.30
29403;DHT22;16382;59.942;30.472;2023-12-04T13:54:49;-3.40;70.20
29403;DHT22;16382;59.942;30.472;2023-12-04T13:57:29;-3.40;70.40
29403;DHT22;16382;59.942;30.472;2023-12-04T14:00:11;-3.50;70.80
29403;DHT22;16382;59.942;30.472;2023-12-04T14:02:46;-3.50;71.00
29403;DHT22;16382;59.942;30.472;2023-12-04T14:05:41;-3.50;71.00
29403;DHT22;16382;59.942;30.472;2023-12-04T14:08:51;-3.50;71.00
29403;DHT22;16382;59.942;30.472;2023-12-04T14:11:32;-3.50;71.00
29403;DHT22;16382;59.942;30.472;2023-12-04T14:15:05;-3.50;71.00
29403;DHT22;16382;59.942;30.472;2023-12-04T14:18:13;-3.50;71.20
29403;DHT22;16382;59.942;30.472;2023-12-04T14:25:38;-3.50;71.30
29403;DHT22;16382;59.942;30.472;2023-12-04T14:28:48;-3.50;71.20
29403;DHT22;16382;59.942;30.472;2023-12-04T14:31:30;-3.50;71.60
29403;DHT22;16382;59.942;30.472;2023-12-04T14:34:09;-3.40;71.60
29403;DHT22;16382;59.942;30.472;2023-12-04T14:36:38;-3.50;71.40
29403;DHT22;16382;59.942;30.472;2023-12-04T14:39:18;-3.40;71.70
29403;DHT22;16382;59.942;30.472;2023-12-04T14:41:57;-3.40;71.50
29403;DHT22;16382;59.942;30.472;2023-12-04T14:44:56;-3.40;71.40
29403;DHT22;16382;59.942;30.472;2023-12-04T14:48:26;-3.40;71.80
29403;DHT22;16382;59.942;30.472;2023-12-04T14:55:06;-3.60;72.30
29403;DHT22;16382;59.942;30.472;2023-12-04T15:02:04;-3.60;72.60
29403;DHT22;16382;59.942;30.472;2023-12-04T15:04:58;-3.50;72.30
29403;DHT22;16382;59.942;30.472;2023-12-04T15:07:55;-3.50;72.40
29403;DHT22;16382;59.942;30.472;2023-12-04T15:10:48;-3.50;72.30
29403;DHT22;16382;59.942;30.472;2023-12-04T15:13:38;-3.40;72.30
29403;DHT22;16382;59.942;30.472;2023-12-04T15:16:19;-3.30;72.20
29403;DHT22;16382;59.942;30.472;2023-12-04T15:18:57;-3.30;71.60
29403;DHT22;16382;59.942;30.472;2023-12-04T15:21:51;-3.20;71.60
29403;DHT22;16382;59.942;30.472;2023-12-04T15:24:25;-3.20;71.40
29403;DHT22;16382;59.942;30.472;2023-12-04T15:26:54;-3.20;71.20
29403;DHT22;16382;59.942;30.472;2023-12-04T15:29:26;-3.30;71.20
29403;DHT22;16382;59.942;30.472;2023-12-04T15:31:55;-3.30;71.20
29403;DHT22;16382;59.942;30.472;2023-12-04T15:34:22;-3.20;71.40
29403;DHT22;16382;59.942;30.472;2023-12-04T15:36:50;-3.30;71.30
29403;DHT22;16382;59.942;30.472;2023-12-04T15:39:20;-3.20;71.40
29403;DHT22;16382;59.942;30.472;2023-12-04T15:41:51;-3.10;71.20
29403;DHT22;16382;59.942;30.472;2023-12-04T15:44:21;-3.10;70.90
29403;DHT22;16382;59.942;30.472;2023-12-04T15:47:02;-3.10;70.80
29403;DHT22;16382;59.942;30.472;2023-12-04T15:49:37;-3.10;70.60
29403;DHT22;16382;59.942;30.472;2023-12-04T15:52:06;-3.20;70.80
29403;DHT22;16382;59.942;30.472;2023-12-04T15:55:10;-3.20;70.80
29403;DHT22;16382;59.942;30.472;2023-12-04T15:57:57;-3.20;71.00
29403;DHT22;16382;59.942;30.472;2023-12-04T16:00:35;-3.30;71.40
29403;DHT22;16382;59.942;30.472;2023-12-04T16:03:23;-3.20;71.20
29403;DHT22;16382;59.942;30.472;2023-12-04T16:06:02;-3.20;72.00
29403;DHT22;16382;59.942;30.472;2023-12-04T16:09:53;-3.30;71.60
29403;DHT22;16382;59.942;30.472;2023-12-04T16:12:39;-3.30;71.90
29403;DHT22;16382;59.942;30.472;2023-12-04T16:15:50;-3.40;72.40
29403;DHT22;16382;59.942;30.472;2023-12-04T16:18:21;-3.30;72.50
29403;DHT22;16382;59.942;30.472;2023-12-04T16:20:52;-3.30;72.30
29403;DHT22;16382;59.942;30.472;2023-12-04T16:23:23;-3.30;72.40
29403;DHT22;16382;59.942;30.472;2023-12-04T16:26:00;-3.30;72.40
29403;DHT22;16382;59.942;30.472;2023-12-04T16:28:31;-3.20;72.50
29403;DHT22;16382;59.942;30.472;2023-12-04T16:31:01;-3.20;71.70
29403;DHT22;16382;59.942;30.472;2023-12-04T16:33:30;-3.20;71.70
29403;DHT22;16382;59.942;30.472;2023-12-04T16:36:04;-3.30;71.60
29403;DHT22;16382;59.942;30.472;2023-12-04T16:38:38;-3.30;71.90
29403;DHT22;16382;59.942;30.472;2023-12-04T16:41:09;-3.30;72.30
29403;DHT22;16382;59.942;30.472;2023-12-04T16:43:40;-3.30;72.40